新唐老鸭俱乐部 第一季Ducktales(2017)

主演:林-曼努尔·米兰达 Lin-Manuel Miranda/贝克·班尼特 Beck Bennett/凯特 米库契 Kate Micucci/鲍比·莫尼汉 Bobby Moynihan/丹尼·朴迪 Danny Pudi/本·施瓦茨 Ben Schwartz/大卫·田纳特 David Tennant/Tony Anselmo/Toks Olagundoye

导演:弗朗西斯科·安格内斯 编剧:马特·杨伯格 Matt Youngberg

片长:21M

剧情介绍

新唐老鸭俱乐部 第一季主演:林-曼努尔·米兰达 Lin-Manuel Miranda/贝克·班尼特 Beck Bennett/凯特 米库契 Kate Micucci/鲍比·莫尼汉 Bobby Moynihan/丹尼·朴迪 Danny Pudi/本·施瓦茨 Ben Schwartz/大卫·田纳特 David Tennant/Tony Anselmo/Toks Olagundoye, The adventures of millionaire Scrooge McDuck and his nephews, as they travel around the world in search of treasure and wealth.
The comedy-adventure series chronicles the high-flying adventures of trillionaire Scrooge McDuck, his grandnephews - Huey, Dewey and Louie, temperamental nephew Donald Duck, Launchpad McQuack, Mrs. Beakley and her granddaughter Webby.

新唐老鸭俱乐部 第一季:最新迅雷BT下载资源

日期 资源名称
2020-05-22 DuckTales.S03E07.WEB-DL.x264-ION10
2020-05-22 DuckTales.2017.S03E07.The.Rumble.for.Ragnarok.1080p.WEB
2020-05-22 DuckTales.2017.S03E07.The.Rumble.for.Ragnarok.720p.WEB-
2020-05-22 DuckTales.S03E07.WEBRip.x264-ION10
2020-05-22 DuckTales.2017.S03E07.WEB.h264-WALT[rartv]
2020-05-15 DuckTales.2017.S03E07.The.Rumble.for.Ragnarok.1080p.AMZ
2020-05-15 DuckTales.2017.S03E07.The.Rumble.for.Ragnarok.720p.AMZN
2020-05-15 DuckTales.2017.S03E07.720p.WEB.h264-WALT[rartv]
2020-05-15 DuckTales.2017.S03E07.1080p.WEB.h264-WALT[rartv]
2020-05-09 DuckTales.S03E06.WEBRip.x264-ION10
2020-05-09 DuckTales.2017.S03E06.Astro.B.O.Y.D.1080p.AMZN.WEBRip.D
2020-05-09 DuckTales.2017.S03E06.Astro.B.O.Y.D.720p.AMZN.WEBRip.DD
2020-05-09 DuckTales.S03E06.WEB-DL.x264-ION10
2020-05-09 DuckTales.2017.S03E06.Astro.B.O.Y.D.1080p.WEB-DL.AAC2.0
2020-05-09 DuckTales.2017.S03E06.Astro.B.O.Y.D.720p.WEB-DL.AAC2.0.
2020-05-09 DuckTales.2017.S03E06.Astro.B.O.Y.D.720p.DSNY.WEBRip.AA
2020-05-09 DuckTales.2017.S03E06.1080p.WEB.h264-TBS[rartv]
2020-05-09 DuckTales.2017.S03E06.720p.WEB.h264-TBS[rartv]
2020-05-09 DuckTales.2017.S03E06.WEB.h264-TBS[rartv]
2020-05-01 DuckTales.2017.S03E05.Louies.Eleven.1080p.WEB-DL.AAC2.0
2020-05-01 DuckTales.S03E05.WEB-DL.x264-ION10
2020-05-01 DuckTales.2017.S03E05.Louies.Eleven.720p.WEB-DL.AAC2.0.
2020-05-01 DuckTales.S03E05.WEBRip.x264-ION10
2020-05-01 DuckTales.2017.S03E05.Louies.Eleven.1080p.AMZN.WEBRip.D
2020-05-01 DuckTales.2017.S03E05.Louies.Eleven.720p.AMZN.WEBRip.DD
2020-05-01 DuckTales.2017.S03E05.1080p.WEB.h264-WALT[rartv]
2020-05-01 DuckTales.2017.S03E05.720p.WEB.h264-WALT[rartv]
2020-05-01 DuckTales.2017.S03E05.WEB.h264-WALT[rartv]
2020-05-01 DuckTales.2017.S03E05.Louies.Eleven.720p.DSNY.WEBRip.AA
2020-04-23 DuckTales.2017.S03E04.The.Lost.Harp.of.Mervana.1080p.AM
2020-04-23 DuckTales.2017.S03E04.The.Lost.Harp.of.Mervana.720p.AMZ
2020-04-23 DuckTales.S03E04.WEBRip.x264-ION10
2020-04-23 DuckTales.2017.S03E04.The.Lost.Harp.of.Mervana.1080p.HU
2020-04-23 DuckTales.2017.S03E04.The.Lost.Harp.of.Mervana.720p.HUL
2020-04-23 DuckTales.2017.S03E04.1080p.WEB.h264-TBS[rartv]
2020-04-23 DuckTales.2017.S03E04.720p.WEB.h264-TBS[rartv]
2020-04-23 DuckTales.2017.S03E04.WEB.h264-TBS[rartv]
2020-04-23 DuckTales.2017.S03E03.Double-O-Duck.in.You.Only.Crash.T
2020-04-23 DuckTales.2017.S03E03.Double-O-Duck.in.You.Only.Crash.T
2020-04-23 DuckTales.2017.S03E03.1080p.WEB.h264-WALT[rartv]
2020-04-23 DuckTales.2017.S03E03.720p.WEB.h264-WALT[rartv]
2020-04-23 DuckTales.2017.S03E03.WEB.h264-WALT[rartv]
2020-04-23 DuckTales.S03E03.WEBRip.x264-ION10
2020-04-23 DuckTales.2017.S03E03.Double-O-Duck.in.You.Only.Crash.T
2020-04-23 DuckTales.2017.S03E03.Double-O-Duck.in.You.Only.Crash.T
2020-04-09 DuckTales.S03E01.WEBRip.x264-ION10
2020-04-09 DuckTales.2017.S03E01.1080p.AMZN.WEBRip.DDP2.0.x264-TVS
2020-04-09 DuckTales.2017.S03E02.Quack.Pack.1080p.AMZN.WEBRip.DDP2
2020-04-09 DuckTales.S03E02.WEBRip.x264-ION10
2020-04-09 DuckTales.2017.S03E02.Quack.Pack.720p.AMZN.WEBRip.DDP2.
2020-04-09 DuckTales.2017.S03E01.720p.AMZN.WEBRip.DDP2.0.x264-TVSm
2020-04-09 DuckTales.2017.S03E01.WEB.h264-WALT[rartv]
2020-04-09 DuckTales.2017.S03E02.WEB.h264-WALT[rartv]
2020-04-09 DuckTales.2017.S03E01.720p.WEB.h264-WALT[rartv]
2020-04-09 DuckTales.2017.S03E02.720p.WEB.h264-WALT[rartv]
2020-04-09 DuckTales.2017.S03E01.1080p.WEB.h264-WALT[rartv]
2020-04-09 DuckTales.2017.S03E02.1080p.WEB.h264-WALT[rartv]
2020-01-02 DuckTales.2017.S02E23.WEB.x264-TBS[TGx]
2019-12-22 DuckTales.2017.S02E20.WEB.x264-TBS[TGx]
2019-12-22 DuckTales.2017.S02E19.WEB.x264-TBS[TGx]
2019-12-11 DuckTales.2017.S02E17.WEB.x264-TBS[TGx]
2019-12-11 DuckTales.2017.S02E18.WEB.x264-TBS[TGx]
2019-12-11 DuckTales.2017.S02E21.WEB.x264-TBS[TGx]
2019-12-11 DuckTales.2017.S02E22.WEB.x264-TBS[TGx]
2019-12-11 DuckTales.2017.S02E24.WEB.x264-TBS[TGx]
2019-09-17 Ducktales.2017.S01.WEBRip.x264-ION10
2019-09-17 DuckTales.2017.S02.WEBRip.x264-ION10
2019-09-17 DuckTales.2017.S02.REPACK.1080p.iT.WEB-DL.AAC2.0.H264-L
2019-09-17 DuckTales.2017.S02.1080p.AMZN.WEBRip.DDP2.0.x264-TVSmas
2019-09-17 DuckTales.2017.S02.720p.AMZN.WEBRip.DDP2.0.x264-TVSmash
2019-09-17 DuckTales.S02E24.WEBRip.x264-ION10
2019-09-17 DuckTales.2017.S02E24.Moonvasion.1080p.AMZN.WEBRip.DDP5
2019-09-17 DuckTales.2017.S02E24.Moonvasion.720p.AMZN.WEBRip.DDP5.
2019-09-17 DuckTales.S02E24.WEB-DL.x264-ION10
2019-09-17 DuckTales.2017.S02E24.Moonvasion.1080p.WEB-DL.DD5.1.H26
2019-09-17 DuckTales.2017.S02E24.Moonvasion.720p.WEB-DL.DD5.1.H264
2019-09-17 DuckTales.S02E23.WEBRip.x264-ION10
2019-09-17 DuckTales.2017.S02E23.The.Richest.Duck.in.the.World.108
2019-09-17 DuckTales.2017.S02E23.The.Richest.Duck.in.the.World.720
2019-09-17 DuckTales.2017.S02E24.Moonvasion.720p.DSNY.WEBRip.AAC2.
2019-09-17 DuckTales.S02E23.WEB-DL.x264-ION10
2019-09-17 DuckTales.2017.S02E23.The.Richest.Duck.in.the.World.108
2019-09-17 DuckTales.2017.S02E23.The.Richest.Duck.in.the.World.720
2019-09-17 DuckTales.2017.S02E24.WEB.x264-TBS[rartv]
2019-09-17 DuckTales.2017.S02E24.720p.WEB.x264-TBS[rartv]
2019-09-17 DuckTales.2017.S02E23.720p.WEB.x264-TBS[rartv]
2019-09-17 DuckTales.2017.S02E22.720p.WEB.x264-TBS[rartv]
2019-09-17 DuckTales.2017.S02E23.WEB.x264-TBS[rartv]
2019-09-17 DuckTales.2017.S02E22.WEB.x264-TBS[rartv]
2019-09-17 DuckTales.S02E22.WEBRip.x264-ION10
2019-09-17 DuckTales.2017.S02E22.GlomTales.1080p.AMZN.WEBRip.DDP2.
2019-09-17 DuckTales.2017.S02E22.GlomTales.720p.AMZN.WEBRip.DDP2.0
2019-09-17 DuckTales.2017.S02E23.The.Richest.Duck.in.the.World.720
2019-09-17 DuckTales.S02E22.WEB-DL.x264-ION10
2019-09-17 DuckTales.2017.S02E22.GlomTales.1080p.WEB-DL.AAC2.0.H26
2019-09-17 DuckTales.2017.S02E22.GlomTales.720p.WEB-DL.AAC2.0.H264
2019-09-17 DuckTales.S02E21.WEB-DL.x264-ION10
2019-09-17 DuckTales.2017.S02E21.Timephoon.1080p.WEB-DL.AAC2.0.H26
2019-09-17 DuckTales.2017.S02E21.Timephoon.720p.WEB-DL.AAC2.0.H264
2019-09-17 DuckTales.2017.S02E22.GlomTales.720p.DSNY.WEBRip.AAC2.0
2019-09-17 DuckTales.S02E21.WEBRip.x264-ION10
2019-09-17 DuckTales.2017.S02E21.Timephoon.1080p.AMZN.WEBRip.DDP2.
2019-09-17 DuckTales.2017.S02E21.Timephoon.720p.AMZN.WEBRip.DDP2.0
2019-09-17 DuckTales.2017.S02E21.720p.WEB.x264-TBS[rartv]
2019-09-17 DuckTales.2017.S02E21.WEB.x264-TBS[rartv]
2019-09-17 DuckTales.2017.S02E21.Timephoon.720p.DSNY.WEBRip.AAC2.0
2019-09-09 DuckTales.2017.S02E20.The.Golden.Armory.of.Cornelius.Co
2019-09-09 DuckTales.S02E20.WEBRip.x264-ION10
2019-09-09 DuckTales.2017.S02E19.A.Nightmare.on.Killmotor.Hill.108
2019-09-09 DuckTales.S02E19.WEBRip.x264-ION10
2019-09-09 DuckTales.2017.S02E20.The.Golden.Armory.of.Cornelius.Co
2019-09-09 DuckTales.2017.S02E19.A.Nightmare.on.Killmotor.Hill.720
2019-09-09 DuckTales.S02E20.WEB-DL.x264-ION10
2019-09-09 DuckTales.2017.S02E20.The.Golden.Armory.of.Cornelius.Co
2019-09-09 DuckTales.2017.S02E20.The.Golden.Armory.of.Cornelius.Co
2019-09-09 DuckTales.2017.S02E20.720p.WEB.x264-TBS[rartv]
2019-09-09 DuckTales.2017.S02E20.WEB.x264-TBS[rartv]
2019-09-09 DuckTales.2017.S02E19.720p.WEB.x264-TBS[rartv]
2019-09-09 DuckTales.2017.S02E18.720p.WEB.x264-TBS[rartv]
2019-09-09 DuckTales.2017.S02E19.WEB.x264-TBS[rartv]
2019-09-09 DuckTales.2017.S02E18.WEB.x264-TBS[rartv]
2019-09-09 DuckTales.2017.S02E17.720p.WEB.x264-TBS[rartv]
2019-09-09 DuckTales.2017.S02E17.WEB.x264-TBS[rartv]
2019-09-09 DuckTales.2017.S02E20.The.Golden.Armory.of.Cornelius.Co
2019-09-09 DuckTales.S02E19.WEB-DL.x264-ION10
2019-09-09 DuckTales.2017.S02E19.A.Nightmare.on.Killmotor.Hill.720
2019-09-09 DuckTales.2017.S02E19.A.Nightmare.on.Killmotor.Hill.108
2019-09-09 DuckTales.S02E18.WEBRip.x264-ION10
2019-09-09 DuckTales.2017.S02E18.Happy.Birthday.Doofus.Drake.1080p
2019-09-09 DuckTales.S02E17.WEBRip.x264-ION10
2019-09-09 DuckTales.2017.S02E17.What.Ever.Happened.to.Donald.Duck
2019-09-09 DuckTales.2017.S02E18.Happy.Birthday.Doofus.Drake.720p.
2019-09-09 DuckTales.2017.S02E17.What.Ever.Happened.to.Donald.Duck
2019-09-09 DuckTales.S02E18.WEB-DL.x264-ION10
2019-09-09 DuckTales.2017.S02E18.Happy.Birthday.Doofus.Drake.720p.
2019-09-09 DuckTales.2017.S02E19.A.Nightmare.on.Killmotor.Hill.720
2019-09-09 DuckTales.2017.S02E18.Happy.Birthday.Doofus.Drake.1080p
2019-09-09 DuckTales.2017.S02E18.Happy.Birthday.Doofus.Drake.720p.
2019-09-09 DuckTales.S02E17.WEB-DL.x264-ION10
2019-09-09 DuckTales.2017.S02E17.What.Ever.Happened.to.Donald.Duck
2019-09-09 DuckTales.2017.S02E17.What.Ever.Happened.to.Donald.Duck
2019-09-09 DuckTales.2017.S02E17.What.Ever.Happened.to.Donald.Duck
2019-05-28 DuckTales.2017.S02E16.WEB.x264-TBS[TGx]
2019-05-26 DuckTales.S02E14.WEBRip.x264-ION10
2019-05-26 DuckTales.2017.S02E14.Friendship.Hates.Magic.1080p.AMZN
2019-05-26 DuckTales.2017.S02E14.Friendship.Hates.Magic.720p.AMZN.
2019-05-26 DuckTales.S02E15.WEBRip.x264-ION10
2019-05-26 DuckTales.S02E16.WEBRip.x264-ION10
2019-05-26 DuckTales.2017.S02E16.The.Duck.Knight.Returns.1080p.AMZ
2019-05-26 DuckTales.2017.S02E16.The.Duck.Knight.Returns.720p.AMZN
2019-05-26 DuckTales.2017.S02E15.The.Dangerous.Chemistry.of.Gandra
2019-05-26 DuckTales.2017.S02E15.The.Dangerous.Chemistry.of.Gandra
2019-05-26 DuckTales.S02E16.WEB-DL.x264-ION10
2019-05-26 DuckTales.2017.S02E16.The.Duck.Knight.Returns.1080p.WEB
2019-05-26 DuckTales.2017.S02E16.The.Duck.Knight.Returns.720p.WEB-
2019-05-21 DuckTales.2017.S02E12.WEB.x264-TBS[rartv]
2019-05-21 DuckTales.2017.S02E12.720p.WEB.x264-TBS[rartv]
2019-05-21 DuckTales.2017.S02E13.WEB.x264-TBS[rartv]
2019-05-21 DuckTales.2017.S02E13.720p.WEB.x264-TBS[rartv]
2019-05-21 DuckTales.2017.S02E14.WEB.x264-TBS[rartv]
2019-05-21 DuckTales.2017.S02E14.720p.WEB.x264-TBS[rartv]
2019-05-21 DuckTales.2017.S02E14.Friendship.Hates.Magic.720p.DSNY.
2019-05-21 DuckTales.2017.S02E10.The.87.Cent.Solution.1080p.WEB-DL
2019-05-21 DuckTales.2017.S02E10.The.87.Cent.Solution.720p.WEB-DL.
2019-05-21 DuckTales.S02E10.WEB-DL.x264-ION10
2019-05-21 DuckTales.2017.S02E11.The.Golden.Spear.720p.WEB-DL.AAC2
2019-05-21 DuckTales.2017.S02E11.The.Golden.Spear.1080p.WEB-DL.AAC
2019-05-21 DuckTales.S02E11.WEB-DL.x264-ION10
2019-05-21 DuckTales.2017.S02E12.Nothing.Can.Stop.Della.Duck.720p.
2019-05-21 DuckTales.2017.S02E12.Nothing.Can.Stop.Della.Duck.1080p
2019-05-21 DuckTales.S02E12.WEB-DL.x264-ION10
2019-05-21 DuckTales.2017.S02E13.Raiders.of.the.Doomsday.Vault.720
2019-05-21 DuckTales.2017.S02E13.Raiders.of.the.Doomsday.Vault.108
2019-05-21 DuckTales.S02E13.WEB-DL.x264-ION10
2019-05-21 DuckTales.2017.S02E11.The.Golden.Spear.720p.AMZN.WEBRip
2019-05-21 DuckTales.2017.S02E12.Nothing.Can.Stop.Della.Duck.720p.
2019-05-21 DuckTales.2017.S02E13.Raiders.of.the.Doomsday.Vault.720
2019-05-21 DuckTales.S02E11.WEBRip.x264-ION10
2019-05-21 DuckTales.S02E12.WEBRip.x264-ION10
2019-05-21 DuckTales.2017.S02E11.The.Golden.Spear.1080p.AMZN.WEBRi
2019-05-21 DuckTales.S02E13.WEBRip.x264-ION10
2019-05-21 DuckTales.2017.S02E12.Nothing.Can.Stop.Della.Duck.1080p
2019-05-21 DuckTales.2017.S02E13.Raiders.of.the.Doomsday.Vault.108
2019-05-21 DuckTales.2017.S02E15.WEB.x264-TBS[rartv]
2019-05-21 DuckTales.2017.S02E15.720p.WEB.x264-TBS[rartv]
2019-05-21 DuckTales.2017.S02E15.The.Dangerous.Chemistry.of.Gandra
2019-05-21 DuckTales.2017.S02E14.Friendship.Hates.Magic.1080p.WEB-
2019-05-21 DuckTales.2017.S02E14.Friendship.Hates.Magic.720p.WEB-D
2019-05-21 DuckTales.S02E14.WEB-DL.x264-ION10
2019-05-21 DuckTales.2017.S02E16.720p.WEB.x264-TBS[rartv]
2019-05-21 DuckTales.2017.S02E16.WEB.x264-TBS[rartv]
2019-05-21 DuckTales.2017.S02E16.The.Duck.Knight.Returns.720p.DSNY
2019-05-21 DuckTales.2017.S02E15.The.Dangerous.Chemistry.of.Gandra
2019-05-21 DuckTales.2017.S02E15.The.Dangerous.Chemistry.of.Gandra
2019-05-21 DuckTales.S02E15.WEB-DL.x264-ION10
2019-05-18 DuckTales.2017.S02E15.WEB.x264-TBS[TGx]
2019-05-18 DuckTales.2017.S02E13.WEB.x264-TBS[TGx]
2019-05-18 DuckTales.2017.S02E14.WEB.x264-TBS[TGx]
2019-05-18 Ducktales.2017.s02e14.720p.WEB.x264-worldmkv
2019-05-18 DuckTales.2017.S02E08.WEB.x264-TBS[TGx]
2019-05-18 DuckTales.2017.S02E09.WEB.x264-TBS[TGx]
2019-05-18 DuckTales.2017.S02E10.WEB.x264-TBS[TGx]
2019-05-12 DuckTales.2017.S02E08.WEB.x264-TBS[rartv]
2019-05-12 DuckTales.2017.S02E08.720p.WEB.x264-TBS[rartv]
2019-05-12 DuckTales.2017.S02E09.WEB.x264-TBS[rartv]
2019-05-12 DuckTales.2017.S02E09.720p.WEB.x264-TBS[rartv]
2019-05-12 DuckTales.2017.S02E08.Treasure.of.the.Found.Lamp.720p.D
2019-05-12 DuckTales.2017.S02E09.The.Outlaw.Scrooge.McDuck.720p.DS
2019-05-12 DuckTales.2017.S02E08.Treasure.of.the.Found.Lamp.1080p.
2019-05-12 DuckTales.2017.S02E08.Treasure.of.the.Found.Lamp.720p.W
2019-05-12 DuckTales.S02E08.WEB-DL.x264-ION10
2019-05-12 DuckTales.2017.S02E10.720p.WEB.x264-TBS[rartv]
2019-05-12 DuckTales.2017.S02E10.WEB.x264-TBS[rartv]
2019-05-12 DuckTales.2017.S02E10.The.87.Cent.Solution.720p.DSNY.WE
2019-05-12 DuckTales.2017.S02E09.The.Outlaw.Scrooge.McDuck.720p.WE
2019-05-12 DuckTales.2017.S02E09.The.Outlaw.Scrooge.McDuck.1080p.W
2019-05-12 DuckTales.S02E09.WEB-DL.x264-ION10
2019-05-12 DuckTales.2017.S02E11.WEB.x264-TBS[rartv]
2019-05-12 DuckTales.2017.S02E11.720p.WEB.x264-TBS[rartv]
2019-05-12 DuckTales.2017.S02E08.Treasure.of.the.Found.Lamp.720p.A
2019-05-12 DuckTales.2017.S02E08.Treasure.of.the.Found.Lamp.1080p.
2019-05-12 DuckTales.2017.S02E09.The.Outlaw.Scrooge.McDuck.720p.AM
2019-05-12 DuckTales.2017.S02E10.The.87.Cent.Solution.720p.AMZN.WE
2019-05-12 DuckTales.2017.S02E10.The.87.Cent.Solution.1080p.AMZN.W
2019-05-12 DuckTales.2017.S02E09.The.Outlaw.Scrooge.McDuck.1080p.A
2019-05-12 DuckTales.S02E09.WEBRip.x264-ION10
2019-05-12 DuckTales.S02E08.WEBRip.x264-ION10
2019-05-12 DuckTales.S02E10.WEBRip.x264-ION10
2019-05-12 DuckTales.2017.S01E11.iNTERNAL.720p.WEB.x264-DEFY[rartv
2019-05-12 DuckTales.2017.S02E07.What.Ever.Happened.to.Della.Duck.
2019-05-12 DuckTales.2017.S02E07.What.Ever.Happened.to.Della.Duck.
2019-05-12 DuckTales.S02E07.WEBRip.x264-ION10
2019-05-12 DuckTales.2017.S02E07.What.Ever.Happened.to.Della.Duck.
2019-05-12 DuckTales.2017.S02E07.What.Ever.Happened.to.Della.Duck.
2019-05-12 DuckTales.S02E07.WEB-DL.x264-ION10
2019-05-12 DuckTales.2017.S02E07.WEB.x264-TBS[rartv]
2019-05-12 DuckTales.2017.S02E07.720p.WEB.x264-TBS[rartv]
2019-05-12 Ducktales.2017.s02e07.720p.WEB.x264-300MB
2019-05-12 DuckTales.2017.S02E07.WEB.x264-TBS[TGx]
2019-05-12 DuckTales.2017.S02E03.HDTV.x264-W4F[TGx]
2019-05-12 DuckTales.2017.S02E04.HDTV.x264-W4F[TGx]
2019-05-12 DuckTales.2017.S02E06.HDTV.x264-W4F[TGx]
2019-05-12 DuckTales.2017.S02E05.HDTV.x264-W4F[TGx]
2019-05-12 DuckTales.2017.S02E03.720p.HDTV.x264-W4F[rartv]
2019-05-12 DuckTales.2017.S02E03.HDTV.x264-W4F[rartv]
2019-05-12 DuckTales.2017.S02E04.HDTV.x264-W4F[rartv]
2019-05-12 DuckTales.2017.S02E04.720p.HDTV.x264-W4F[rartv]
2019-05-12 DuckTales.2017.S02E05.HDTV.x264-W4F[rartv]
2019-05-12 DuckTales.2017.S02E05.720p.HDTV.x264-W4F[rartv]
2019-05-12 DuckTales.2017.S02E06.HDTV.x264-W4F[rartv]
2019-05-12 DuckTales.2017.S02E06.720p.HDTV.x264-W4F[rartv]
2019-05-12 DuckTales.2017.S01E22.HDTV.x264-W4F[TGx]
2019-05-12 DuckTales.2017.S01E21.HDTV.x264-W4F[TGx]
2019-05-12 DuckTales.2017.S01E23.HDTV.x264-W4F[TGx]
2019-05-12 DuckTales.2017.S02E01.HDTV.x264-W4F[TGx]
2019-05-12 DuckTales.2017.S02E02.HDTV.x264-W4F[TGx]
2019-05-12 DuckTales.2017.S02E06.Last.Christmas.720p.AMZN.WEBRip.D
2019-05-12 DuckTales.2017.S02E06.Last.Christmas.1080p.AMZN.WEBRip.
2019-05-12 DuckTales.2017.S02E05.Storkules.in.Duckburg.720p.AMZN.W
2019-05-12 DuckTales.2017.S02E05.Storkules.in.Duckburg.1080p.AMZN.
2019-05-12 DuckTales.S02E06.WEBRip.x264-ION10
2019-05-12 DuckTales.S02E05.WEBRip.x264-ION10
2019-05-12 DuckTales.2017.S01E21.HDTV.x264-W4F[rartv]
2019-05-12 DuckTales.2017.S01E22.720p.HDTV.x264-W4F[rartv]
2019-05-12 DuckTales.2017.S01E22.HDTV.x264-W4F[rartv]
2019-05-12 DuckTales.2017.S01E23.HDTV.x264-W4F[rartv]
2019-05-12 DuckTales.2017.S01E21.720p.HDTV.x264-W4F[rartv]
2019-05-12 DuckTales.2017.S02E01.720p.HDTV.x264-W4F[rartv]
2019-05-12 DuckTales.2017.S01E23.720p.HDTV.x264-W4F[rartv]
2019-05-12 DuckTales.2017.S02E01.HDTV.x264-W4F[rartv]
2019-05-12 DuckTales.2017.S02E02.HDTV.x264-W4F[rartv]
2019-05-12 DuckTales.2017.S02E02.720p.HDTV.x264-W4F[rartv]
2019-05-12 ducktales.2017.s02.1080p.it.web-dl.aac2.0.h264-lazy
2019-05-12 DuckTales.2017.S01E20.HDTV.x264-W4F[TGx]
2019-05-12 DuckTales.2017.S02E06.WEB.x264-TBS[rartv]
2019-05-12 DuckTales.2017.S02E06.720p.WEB.x264-TBS[rartv]
2019-05-12 DuckTales.2017.S02E06.Last.Christmas.720p.DSNY.WEBRip.A
2019-05-12 DuckTales.2017.S02E06.Last.Christmas.720p.WEB-DL.AAC2.0
2019-05-12 DuckTales.2017.S02E06.Last.Christmas.1080p.WEB-DL.AAC2.
2019-05-12 DuckTales.S02E06.WEB-DL.x264-ION10
2019-05-12 DuckTales.2017.S02E04.The.Town.Where.Everyone.Was.Nice.
2019-05-12 DuckTales.2017.S02E04.The.Town.Where.Everyone.Was.Nice.
2019-05-12 DuckTales.2017.S01E20.720p.HDTV.x264-W4F[rartv]
2019-05-12 DuckTales.2017.S01E20.HDTV.x264-W4F[rartv]
2019-05-12 DuckTales.2017.S02E05.720p.WEB.x264-300MB
2019-05-12 DuckTales.2017.S02E03.WEB.x264-TBS[TGx]
2019-05-12 DuckTales.2017.S02E01.WEB.x264-TBS[TGx]
2019-05-12 Ducktales.2017.s02e03.720p.WEB.x264-300MB
2019-05-12 Ducktales.2017.s02e02.720p.WEB.x264-300MB
2019-05-12 DuckTales.2017.S02E01.720p.WEB.x264-300MB
2019-05-12 DuckTales.S02E04.WEBRip.x264-ION10
2019-05-12 DuckTales.2017.S02E05.WEB.x264-TBS[TGx]
2019-05-12 DuckTales.2017.S02E02.WEB.x264-TBS[TGx]
2019-05-12 DuckTales.2017.S02E04.WEB.x264-TBS[TGx]
2019-05-12 DuckTales.2017.S02E05.Storkules.in.Duckburg.720p.DSNY.W
2019-05-12 DuckTales.2017.S02E05.WEB.x264-TBS[rartv]
2019-05-12 DuckTales.2017.S02E05.720p.WEB.x264-TBS[rartv]
2019-05-12 DuckTales.2017.S02E05.Storkules.in.Duckburg.720p.WEB-DL
2019-05-12 DuckTales.2017.S02E05.Storkules.in.Duckburg.1080p.WEB-D
2019-05-12 DuckTales.S02E05.WEB-DL.x264-ION10
2019-05-12 DuckTales.2017.S02E04.The.Town.Where.Everyone.Was.Nice.
2019-05-12 DuckTales.2017.S02E04.WEB.x264-TBS[rartv]
2019-05-12 DuckTales.2017.S02E04.720p.WEB.x264-TBS[rartv]
2019-05-12 DuckTales.2017.S02E04.The.Town.Where.Everyone.Was.Nice.
2019-05-12 DuckTales.2017.S02E04.The.Town.Where.Everyone.Was.Nice.
2019-05-12 DuckTales.S02E04.WEB-DL.x264-ION10
2019-05-12 DuckTales.2017.S02E02.The.Depths.of.Cousin.Fethry.720p.
2019-05-12 DuckTales.2017.S02E02.The.Depths.of.Cousin.Fethry.1080p
2019-05-12 DuckTales.S02E02.WEBRip.x264-ION10
2019-05-12 DuckTales.2017.S02E03.720p.WEB.x264-TBS[rartv]
2019-05-12 DuckTales.2017.S02E03.WEB.x264-TBS[rartv]
2019-05-12 DuckTales.2017.S02E03.The.Ballad.of.Duke.Baloney.720p.D
2019-05-12 DuckTales.2017.S02E03.The.Ballad.of.Duke.Baloney.720p.W
2019-05-12 DuckTales.2017.S02E03.The.Ballad.of.Duke.Baloney.1080p.
2019-05-12 DuckTales.S02E03.WEB-DL.x264-ION10
2019-05-12 DuckTales.2017.S02E03.The.Ballad.of.Duke.Baloney.720p.A
2019-05-12 DuckTales.2017.S02E03.The.Ballad.of.Duke.Baloney.1080p.
2019-05-12 DuckTales.S02E03.WEBRip.x264-ION10
2019-05-12 DuckTales.2017.S02E02.The.Depths.of.Cousin.Fethry.720p.
2019-05-12 DuckTales.2017.S02E02.720p.WEB.x264-TBS[rartv]
2019-05-12 DuckTales.2017.S02E02.WEB.x264-TBS[rartv]
2019-05-12 DuckTales.2017.S02E02.The.Depths.of.Cousin.Fethry.720p.
2019-05-12 DuckTales.2017.S02E02.The.Depths.of.Cousin.Fethry.1080p
2019-05-12 DuckTales.S02E02.WEB-DL.x264-ION10
2019-05-12 DuckTales.2017.S02E01.The.Most.Dangerous.Game.Night.720
2019-05-12 DuckTales.2017.S02E01.WEB.x264-TBS[rartv]
2019-05-12 DuckTales.2017.S02E01.720p.WEB.x264-TBS[rartv]
2019-05-12 DuckTales.2017.S02E01.The.Most.Dangerous.Game.Night.108
2019-05-12 DuckTales.2017.S02E01.The.Most.Dangerous.Game.Night.720
2019-05-12 DuckTales.S02E01.WEB-DL.x264-ION10
2019-05-12 DuckTales.2017.S02E01.The.Most.Dangerous.Game.Night.720
2019-05-12 DuckTales.2017.S02E01.The.Most.Dangerous.Game.Night.108
2019-05-12 DuckTales.S02E01.WEBRip.x264-ION10
2019-05-12 DuckTales 2017 Season 1 Complete 720p HDTV x264 [i_c]
2019-05-12 DuckTales.2017.S01E23.The.Shadow.War.720p.AMZN.WEBRip.D
2019-05-12 DuckTales.2017.S01E23.The.Shadow.War.1080p.AMZN.WEBRip.
2019-05-12 DuckTales.S01E23.WEBRip.x264-ION10
2019-05-12 Ducktales.2017.S01.1080p.AMZN.WEBRip.DDP2.0.x264-TVSmas
2019-05-12 Ducktales.2017.S01.720p.AMZN.WEBRip.DDP2.0.x264-TVSmash
2019-05-12 DuckTales.2017.S01E23.WEB.x264-TBS[rartv]
2019-05-12 DuckTales.2017.S01E23.720p.WEB.x264-TBS[rartv]
2019-05-12 DuckTales.2017.S01E22.WEB.x264-TBS[TGx]
2019-05-12 DuckTales.2017.S01E23.WEB.x264-TBS[TGx]
2019-05-12 DuckTales.2017.S01E22.WEB.x264-TBS[rartv]
2019-05-12 DuckTales.2017.S01E22.720p.WEB.x264-TBS[rartv]
2019-05-12 DuckTales.2017.S01E22.The.Last.Crash.of.the.Sunchaser.1
2019-05-12 DuckTales.2017.S01E22.The.Last.Crash.of.the.Sunchaser.7
2019-05-12 DuckTales.S01E22.WEBRip.x264-ION10
2019-05-12 DuckTales.2017.S01E08.720p.HDTV.x264-W4F[rartv]
2019-05-12 DuckTales.2017.S01E07.The.Living.Mummies.of.Toth-Ra.720
2019-05-12 DuckTales.2017.S01E07.The.Living.Mummies.of.Toth-Ra.108
2019-05-12 DuckTales.2017.S01E08.The.Living.Mummies.of.Toth-Ra.720
2019-05-12 DuckTales.2017.S01E08.The.Living.Mummies.of.Toth-Ra.108
2019-05-12 DuckTales.S01E08.WEBRip.x264-RARBG
2019-05-12 DuckTales.2017.S01E09.720p.WEB.x264-TBS[rartv]
2019-05-12 DuckTales.2017.S01E09.WEB.x264-TBS[rartv]
2019-05-12 DuckTales.2017.S01E09.HDTV.x264-W4F[rartv]
2019-05-12 DuckTales.2017.S01E09.720p.HDTV.x264-W4F[rartv]
2019-05-12 DuckTales.S01E09.The.Impossible.Summit.of.Mt.Neverrest.
2019-05-12 DuckTales.S01E09.The.Impossible.Summit.of.Mt.Neverrest.
2019-05-12 DuckTales.S01E09.WEBRip.x264-RARBG
2019-05-12 DuckTales.2017.S01E10.The.Spear.of.Selene.720p.DSNY.WEB
2019-05-12 DuckTales.2017.S01E10.720p.HDTV.x264-W4F[rartv]
2019-05-12 DuckTales.2017.S01E10.HDTV.x264-W4F[rartv]
2019-05-12 DuckTales.2017.S01E10.iNTERNAL.720p.WEB.x264-BAMBOOZLE[
2019-05-12 DuckTales.2017.S01E10.The.Spear.of.Selene.720p.AMZN.WEB
2019-05-12 DuckTales.2017.S01E10.The.Spear.of.Selene.1080p.AMZN.WE
2019-05-12 DuckTales.S01E10.WEBRip.x264-ION10
2019-05-12 DuckTales.2017.S01E11.WEB.x264-TBS[rartv]
2019-05-12 DuckTales.2017.S01E11.Beware.the.B.U.D.D.Y.System.720p.
2019-05-12 DuckTales.2017.S01E11.Beware.the.B.U.D.D.Y.System.1080p
2019-05-12 DuckTales.2017.S01E11.HDTV.x264-W4F[rartv]
2019-05-12 DuckTales.2017.S01E11.720p.HDTV.x264-W4F[rartv]
2019-05-12 DuckTales.2017.S01E12.The.Missing.Links.of.Moorshire.72
2019-05-12 DuckTales.2017.S01E12.720p.WEB.x264-TBS[rartv]
2019-05-12 DuckTales.2017.S01E12.WEB.x264-TBS[rartv]
2019-05-12 DuckTales.2017.S01E12.The.Missing.Links.of.Moorshire.72
2019-05-12 DuckTales.2017.S01E12.The.Missing.Links.of.Moorshire.10
2019-05-12 DuckTales.S01E12.WEBRip.x264-ION10
2019-05-12 DuckTales.2017.S01E13.McMystery.at.McDuck.McManor.720p.
2019-05-12 DuckTales.2017.S01E13.WEB.x264-TBS[rartv]
2019-05-12 DuckTales.2017.S01E13.720p.WEB.x264-TBS[rartv]
2019-05-12 DuckTales.2017.S01E13.McMystery.at.McDuck.McManor.720p.
2019-05-12 DuckTales.S01E13.WEBRip.x264-ION10
2019-05-12 DuckTales.2017.S01E13.McMystery.at.McDuck.McManor.1080p
2019-05-12 DuckTales.2017.S01E11.REPACK.720p.HDTV.x264-W4F[rartv]
2019-05-12 DuckTales.2017.S01E12.720p.HDTV.x264-W4F[rartv]
2019-05-12 DuckTales.2017.S01E12.HDTV.x264-W4F[rartv]
2019-05-12 DuckTales.2017.S01E13.720p.HDTV.x264-W4F[rartv]
2019-05-12 DuckTales.2017.S01E13.HDTV.x264-W4F[rartv]
2019-05-12 DuckTales.2017.S01E14.WEB.x264-TBS[rartv]
2019-05-12 DuckTales.2017.S01E14.720p.WEB.x264-TBS[rartv]
2019-05-12 DuckTales.2017.S01E14.Jaws.720p.DSNY.WEBRip.AAC2.0.x264
2019-05-12 DuckTales.2017.S01E14.Jaws.720p.AMZN.WEBRip.DDP2.0.x264
2019-05-12 DuckTales.2017.S01E14.Jaws.1080p.AMZN.WEBRip.DDP2.0.x26
2019-05-12 DuckTales.S01E14.WEBRip.x264-ION10
2019-05-12 DuckTales.2017.S01E14.720p.HDTV.x264-W4F[rartv]
2019-05-12 DuckTales.2017.S01E14.HDTV.x264-W4F[rartv]
2019-05-12 DuckTales.2017.S01E15.720p.WEB.x264-TBS[rartv]
2019-05-12 DuckTales.2017.S01E15.1080p.WEB.x264-TBS[rartv]
2019-05-12 DuckTales.2017.S01E15.WEB.x264-TBS[rartv]
2019-05-12 DuckTales.2017.S01E15.The.Golden.Lagoon.of.White.Agony.
2019-05-12 DuckTales.2017.S01E15.The.Golden.Lagoon.of.White.Agony.
2019-05-12 DuckTales.2017.S01E15.The.Golden.Lagoon.of.White.Agony.
2019-05-12 DuckTales.S01E15.WEBRip.x264-ION10
2019-05-12 DuckTales.2017.S01E16.WEB.x264-TBS[rartv]
2019-05-12 DuckTales.2017.S01E16.720p.WEB.x264-TBS[rartv]
2019-05-12 DuckTales.2017.S01E16.1080p.WEB.x264-TBS[rartv]
2019-05-12 DuckTales.2017.S01E16.Day.of.the.Only.Child.720p.AMZN.W
2019-05-12 DuckTales.2017.S01E16.Day.of.the.Only.Child.1080p.AMZN.
2019-05-12 DuckTales.S01E16.WEBRip.x264-ION10
2019-05-12 DuckTales.2017.S01E15.720p.HDTV.x264-W4F[rartv]
2019-05-12 DuckTales.2017.S01E15.HDTV.x264-W4F[rartv]
2019-05-12 DuckTales.2017.S01E16.720p.HDTV.x264-W4F[rartv]
2019-05-12 DuckTales.2017.S01E16.HDTV.x264-W4F[rartv]
2019-05-12 DuckTales.2017.S01E17.1080p.WEB.x264-TBS[rartv]
2019-05-12 DuckTales.2017.S01E17.WEB.x264-TBS[rartv]
2019-05-12 DuckTales.2017.S01E17.720p.WEB.x264-TBS[rartv]
2019-05-12 DuckTales.2017.S01E17.From.the.Confidential.Files.of.Ag
2019-05-12 DuckTales.2017.S01E17.HDTV.x264-W4F[rartv]
2019-05-12 DuckTales.2017.S01E17.720p.HDTV.x264-W4F[rartv]
2019-05-12 DuckTales.2017.S01E17.1080p.AMZN.WEBRip.DDP2.0.x264-TVS
2019-05-12 DuckTales.2017.S01E17.720p.AMZN.WEBRip.DDP2.0.x264-TVSm
2019-05-12 DuckTales.S01E17.WEBRip.x264-ION10
2019-05-12 DuckTales.2017.S01E18.WEB.x264-TBS[rartv]
2019-05-12 DuckTales.2017.S01E18.720p.WEB.x264-TBS[rartv]
2019-05-12 DuckTales.2017.S01E18.Who.is.Gizmoduck.720p.AMZN.WEBRip
2019-05-12 DuckTales.2017.S01E18.Who.is.Gizmoduck.1080p.AMZN.WEBRi
2019-05-12 DuckTales.S01E18.WEBRip.x264-ION10
2019-05-12 DuckTales.2017.S01E19.WEB.x264-TBS[rartv]
2019-05-12 DuckTales.2017.S01E19.720p.WEB.x264-TBS[rartv]
2019-05-12 DuckTales.2017.S01E18.HDTV.x264-W4F[rartv]
2019-05-12 DuckTales.2017.S01E18.720p.HDTV.x264-W4F[rartv]
2019-05-12 DuckTales.2017.S01E19.720p.HDTV.x264-W4F[rartv]
2019-05-12 DuckTales.2017.S01E19.HDTV.x264-W4F[rartv]
2019-05-12 DuckTales.2017.S01E19.The.Other.Bin.of.Scrooge.McDuck.7
2019-05-12 DuckTales.2017.S01E19.The.Other.Bin.of.Scrooge.McDuck.1
2019-05-12 DuckTales.S01E19.WEBRip.x264-ION10
2019-05-12 DuckTales.2017.S01E20.WEB.x264-TBS[rartv]
2019-05-12 DuckTales.2017.S01E20.720p.WEB.x264-TBS[rartv]
2019-05-12 DuckTales.2017.S01E21.WEB.x264-TBS[rartv]
2019-05-12 DuckTales.2017.S01E21.720p.WEB.x264-TBS[rartv]
2019-05-12 DuckTales.2017.S01E21.The.Secrets.of.Castle.McDuck.720p
2019-05-12 DuckTales.2017.S01E20.Sky.Pirates.In.the.Sky.720p.AMZN.
2019-05-12 DuckTales.2017.S01E20.Sky.Pirates.In.the.Sky.1080p.AMZN
2019-05-12 DuckTales.2017.S01E21.The.Secrets.of.Castle.McDuck.1080
2019-05-12 DuckTales.S01E21.WEBRip.x264-ION10
2019-05-12 DuckTales.S01E20.WEBRip.x264-ION10
2019-05-12 DuckTales.2017.S01E21.WEB.x264-TBS[TGx]
2019-05-12 DuckTales 2017 S01E09 AMZN WEB-DL x265 HEVC 10bit Qman
2019-05-12 DuckTales.2017.S01E04.WEB.x264-TBS[rartv]
2019-05-12 DuckTales.2017.S01E04.720p.WEB.x264-TBS[rartv]
2019-05-12 DuckTales.2017.S01E02.HDTV.x264-W4F[rartv]
2019-05-12 DuckTales.2017.S01E02.720p.HDTV.x264-W4F[rartv]
2019-05-12 DuckTales.2017.S01E03.HDTV.x264-W4F[rartv]
2019-05-12 DuckTales.2017.S01E03.720p.HDTV.x264-W4F[rartv]
2019-05-12 DuckTales.2017.S01E04.HDTV.x264-W4F[rartv]
2019-05-12 DuckTales.2017.S01E04.720p.HDTV.x264-W4F[rartv]
2019-05-12 DuckTales.2017.S01E04.The.Beagle.Birthday.Massacre.720p
2019-05-12 DuckTales.2017.S01E04.The.Beagle.Birthday.Massacre.1080
2019-05-12 DuckTales.S01E04.WEBRip.x264-RARBG
2019-05-12 DuckTales.2017.S01E03.The.Great.Dime.Chase.720p.AMZN.WE
2019-05-12 DuckTales.2017.S01E02.Daytrip.of.Doom.720p.AMZN.WEBRip.
2019-05-12 DuckTales.2017.S01E02.Daytrip.of.Doom.1080p.AMZN.WEBRip
2019-05-12 DuckTales.2017.S01E03.The.Great.Dime.Chase.1080p.AMZN.W
2019-05-12 DuckTales.S01E02.WEBRip.x264-RARBG
2019-05-12 DuckTales.S01E03.WEBRip.x264-RARBG
2019-05-12 DuckTales.2017.S01E02.WEB.x264-TBS[rartv]
2019-05-12 DuckTales.2017.S01E02.720p.WEB.x264-TBS[rartv]
2019-05-12 DuckTales.2017.S01E03.WEB.x264-TBS[rartv]
2019-05-12 DuckTales.2017.S01E03.720p.WEB.x264-TBS[rartv]
2019-05-12 DuckTales.2017.S01E01.Woo-oo!.720p.WEBRip.H264-Rapta
2019-05-12 DuckTales 2017 S01E01 720p WEB x264-TBS
2019-05-12 DuckTales 2017 S01E01 WEB x264-TBS
2019-05-12 DuckTales.2017.S01E01.720p.HDTV.x264-W4F[rartv]
2019-05-12 DuckTales.2017.S01E01.HDTV.x264-W4F[rartv]
2019-05-12 DuckTales.2017.S01E01E02.Woo-oo.1080p.WEB-DL.DD5.1.H264
2019-05-12 DuckTales.2017.S01E01E02.Woo-oo.720p.WEB-DL.DD5.1.H264-
2019-05-12 DuckTales.S01E01.WEB-DL.x264-RARBG
2019-05-12 DuckTales.2017.S01E01.720p.WEB.x264-TBS[xiepp.com]
2019-05-12 DuckTales.2017.S01E01.WEB.x264-TBS[xiepp.com]
选择 操作
迅雷下载选中文件

影片评论